createdAt,value
2023-04-24T00:00:11.042Z,24.21
2023-04-24T00:02:40.010Z,24.21
2023-04-24T00:05:10.078Z,24.21
2023-04-24T00:07:38.446Z,24.23
2023-04-24T00:10:08.244Z,24.21
2023-04-24T00:12:36.594Z,24.21
2023-04-24T00:15:07.586Z,24.22
2023-04-24T00:17:36.014Z,24.21
2023-04-24T00:20:05.763Z,24.21
2023-04-24T00:22:34.743Z,24.21
2023-04-24T00:25:03.117Z,24.20
2023-04-24T00:27:31.577Z,24.22
2023-04-24T00:29:59.973Z,24.21
2023-04-24T00:32:29.689Z,24.21
2023-04-24T00:34:58.057Z,24.20
2023-04-24T00:37:26.434Z,24.21
2023-04-24T00:39:55.045Z,24.21
2023-04-24T00:42:23.425Z,24.21
2023-04-24T00:44:51.987Z,24.21
2023-04-24T00:47:20.318Z,24.20
2023-04-24T00:49:50.040Z,24.20
2023-04-24T00:52:18.988Z,24.20
2023-04-24T00:54:47.414Z,24.20
2023-04-24T00:57:15.848Z,24.21
2023-04-24T00:59:44.437Z,24.21
2023-04-24T01:02:13.156Z,24.20
2023-04-24T01:04:41.729Z,24.21
2023-04-24T01:07:12.508Z,24.21
2023-04-24T01:09:41.951Z,24.19
2023-04-24T01:12:10.638Z,24.20
2023-04-24T01:14:39.457Z,24.20
2023-04-24T01:17:08.365Z,24.19
2023-04-24T01:19:36.798Z,24.20
2023-04-24T01:22:05.179Z,24.19
2023-04-24T01:24:35.007Z,24.19
2023-04-24T01:27:03.333Z,24.18
2023-04-24T01:29:31.696Z,24.18
2023-04-24T01:32:00.084Z,24.18
2023-04-24T01:34:28.550Z,24.18
2023-04-24T01:36:57.567Z,24.18
2023-04-24T01:39:26.786Z,24.19
2023-04-24T01:41:56.650Z,24.18
2023-04-24T01:44:25.151Z,24.18
2023-04-24T01:46:55.142Z,24.18
2023-04-24T01:49:23.637Z,24.17
2023-04-24T01:51:51.949Z,24.17
2023-04-24T01:54:20.685Z,24.17
2023-04-24T01:56:49.050Z,24.16
2023-04-24T01:59:18.750Z,24.16
2023-04-24T02:01:47.180Z,24.16
2023-04-24T02:04:16.467Z,24.16
2023-04-24T02:06:44.957Z,24.15
2023-04-24T02:09:13.274Z,24.16
2023-04-24T02:11:41.906Z,24.16
2023-04-24T02:14:10.217Z,24.15
2023-04-24T02:16:40.010Z,24.16
2023-04-24T02:19:08.478Z,24.16
2023-04-24T02:21:36.885Z,24.16
2023-04-24T02:24:05.605Z,24.16
2023-04-24T02:26:34.114Z,24.15
2023-04-24T02:29:02.728Z,24.15
2023-04-24T02:31:31.135Z,24.15
2023-04-24T02:34:00.964Z,24.15
2023-04-24T02:36:29.335Z,24.16
2023-04-24T02:38:57.699Z,24.15
2023-04-24T02:41:26.227Z,24.14
2023-04-24T02:43:54.596Z,24.14
2023-04-24T02:46:22.948Z,24.15
2023-04-24T02:48:51.430Z,24.13
2023-04-24T02:51:21.082Z,24.15
2023-04-24T02:53:49.425Z,24.14
2023-04-24T02:56:17.790Z,24.14
2023-04-24T02:58:46.141Z,24.13
2023-04-24T03:01:14.541Z,24.13
2023-04-24T03:03:42.996Z,24.13
2023-04-24T03:06:11.817Z,24.14
2023-04-24T03:08:41.526Z,24.13
2023-04-24T03:11:09.874Z,24.13
2023-04-24T03:13:38.205Z,24.13
2023-04-24T03:16:07.111Z,24.13
2023-04-24T03:18:35.542Z,24.12
2023-04-24T03:21:04.561Z,24.12
2023-04-24T03:23:33.011Z,24.13
2023-04-24T03:26:03.383Z,24.13
2023-04-24T03:28:31.769Z,24.12
2023-04-24T03:31:00.190Z,24.12
2023-04-24T03:33:28.579Z,24.11
2023-04-24T03:35:56.949Z,24.11
2023-04-24T03:38:25.346Z,24.12
2023-04-24T03:40:53.732Z,24.11
2023-04-24T03:43:23.527Z,24.11
2023-04-24T03:45:53.022Z,24.12
2023-04-24T03:48:21.414Z,24.11
2023-04-24T03:50:49.777Z,24.13
2023-04-24T03:53:18.078Z,24.13
2023-04-24T03:55:46.454Z,24.13
2023-04-24T03:58:15.355Z,24.12
2023-04-24T04:00:45.600Z,24.12
2023-04-24T04:03:14.463Z,24.12
2023-04-24T04:05:42.952Z,24.11
2023-04-24T04:08:11.310Z,24.12
2023-04-24T04:10:39.665Z,24.12
2023-04-24T04:13:08.028Z,24.12
2023-04-24T04:15:36.757Z,24.11
2023-04-24T04:18:06.621Z,24.12
2023-04-24T04:20:35.069Z,24.12
2023-04-24T04:23:03.404Z,24.13
2023-04-24T04:25:31.738Z,24.13
2023-04-24T04:28:00.587Z,24.13
2023-04-24T04:30:30.450Z,24.13
2023-04-24T04:32:58.837Z,24.13
2023-04-24T04:35:28.657Z,24.13
2023-04-24T04:37:57.101Z,24.14
2023-04-24T04:40:25.918Z,24.14
2023-04-24T04:42:55.026Z,24.13
2023-04-24T04:45:25.342Z,24.13
2023-04-24T04:47:53.694Z,24.13
2023-04-24T04:50:22.301Z,24.14
2023-04-24T04:52:52.171Z,24.15
2023-04-24T04:55:20.922Z,24.15
2023-04-24T04:57:49.287Z,24.14
2023-04-24T05:00:18.228Z,24.15
2023-04-24T05:02:46.730Z,24.14
2023-04-24T05:05:15.267Z,24.15
2023-04-24T05:07:43.601Z,24.16
2023-04-24T05:10:13.730Z,24.15
2023-04-24T05:12:44.213Z,24.18
2023-04-24T05:15:14.992Z,24.20
2023-04-24T05:17:43.495Z,24.22
2023-04-24T05:20:12.103Z,24.22
2023-04-24T05:22:40.447Z,24.24
2023-04-24T05:25:09.764Z,24.25
2023-04-24T05:27:39.498Z,24.27
2023-04-24T05:30:10.552Z,24.29
2023-04-24T05:32:38.903Z,24.29
2023-04-24T05:35:08.037Z,24.29
2023-04-24T05:37:36.521Z,24.30
2023-04-24T05:40:06.492Z,24.33
2023-04-24T05:42:34.961Z,24.34
2023-04-24T05:45:05.540Z,24.36
2023-04-24T05:47:33.957Z,24.34
2023-04-24T05:50:02.397Z,24.34
2023-04-24T05:52:30.758Z,24.36
2023-04-24T05:54:59.078Z,24.36
2023-04-24T05:57:27.581Z,24.34
2023-04-24T05:59:56.340Z,24.32
2023-04-24T06:02:26.433Z,24.34
2023-04-24T06:04:55.118Z,24.32
2023-04-24T06:07:23.597Z,24.30
2023-04-24T06:09:52.022Z,24.30
2023-04-24T06:12:20.411Z,24.33
2023-04-24T06:14:48.736Z,24.35
2023-04-24T06:17:17.856Z,24.35
2023-04-24T06:19:47.615Z,24.35
2023-04-24T06:22:16.232Z,24.38
2023-04-24T06:24:44.674Z,24.39
2023-04-24T06:27:14.529Z,24.38
2023-04-24T06:29:44.270Z,24.41
2023-04-24T06:32:12.994Z,24.39
2023-04-24T06:34:41.450Z,24.34
2023-04-24T06:37:11.199Z,24.36
2023-04-24T06:39:39.543Z,24.33
2023-04-24T06:42:09.188Z,24.33
2023-04-24T06:44:42.167Z,24.34
2023-04-24T06:47:10.978Z,24.35
2023-04-24T06:49:39.643Z,24.36
2023-04-24T06:52:08.071Z,24.36
2023-04-24T06:54:37.794Z,24.35
2023-04-24T06:57:06.197Z,24.35
2023-04-24T06:59:34.583Z,24.35
2023-04-24T07:02:03.019Z,24.35
2023-04-24T07:04:31.912Z,24.36
2023-04-24T07:07:00.392Z,24.34
2023-04-24T07:09:28.936Z,24.34
2023-04-24T07:11:58.930Z,24.34
2023-04-24T07:14:27.335Z,24.36
2023-04-24T07:16:55.686Z,24.36
2023-04-24T07:19:24.102Z,24.28
2023-04-24T07:21:52.622Z,24.27
2023-04-24T07:24:22.604Z,24.28
2023-04-24T07:29:22.511Z,24.33
2023-04-24T07:31:50.968Z,24.33
2023-04-24T07:34:19.449Z,24.32
2023-04-24T07:36:48.390Z,24.28
2023-04-24T07:39:16.950Z,24.25
2023-04-24T07:41:45.442Z,24.31
2023-04-24T07:44:13.821Z,24.35
2023-04-24T07:46:43.600Z,24.35
2023-04-24T07:49:13.553Z,24.36
2023-04-24T07:51:43.178Z,24.37
2023-04-24T07:54:11.756Z,24.34
2023-04-24T07:56:40.886Z,24.34
2023-04-24T07:59:10.793Z,24.39
2023-04-24T08:01:39.270Z,24.39
2023-04-24T08:04:09.466Z,24.39
2023-04-24T08:06:37.959Z,24.38
2023-04-24T08:09:06.433Z,24.33
2023-04-24T08:11:34.979Z,24.34
2023-04-24T08:14:03.381Z,24.36
2023-04-24T08:16:31.845Z,24.36
2023-04-24T08:19:00.268Z,24.39
2023-04-24T08:21:30.094Z,24.41
2023-04-24T08:23:58.468Z,24.40
2023-04-24T08:26:26.796Z,24.39
2023-04-24T08:28:55.168Z,24.40
2023-04-24T08:31:23.934Z,24.41
2023-04-24T08:33:52.412Z,24.44
2023-04-24T08:36:20.839Z,24.45
2023-04-24T08:38:50.557Z,24.44
2023-04-24T08:41:18.943Z,24.44
2023-04-24T08:43:48.493Z,24.45
2023-04-24T08:46:16.872Z,24.45
2023-04-24T08:48:45.371Z,24.47
2023-04-24T08:51:13.881Z,24.45
2023-04-24T08:53:42.613Z,24.42
2023-04-24T08:56:12.428Z,24.44
2023-04-24T08:58:40.882Z,24.46
2023-04-24T09:01:09.262Z,24.49
2023-04-24T09:03:37.926Z,24.48
2023-04-24T09:06:07.127Z,24.46
2023-04-24T09:08:35.545Z,24.41
2023-04-24T09:11:04.798Z,24.42
2023-04-24T09:13:34.825Z,24.45
2023-04-24T09:16:03.491Z,24.48
2023-04-24T09:18:31.801Z,24.48
2023-04-24T09:21:01.339Z,24.47
2023-04-24T09:23:30.863Z,24.44
2023-04-24T09:25:59.744Z,24.41
2023-04-24T09:28:32.281Z,24.43
2023-04-24T09:31:09.899Z,24.38
2023-04-24T09:33:38.396Z,24.39
2023-04-24T09:36:07.209Z,24.40
2023-04-24T09:38:36.777Z,24.34
2023-04-24T09:41:07.557Z,24.39
2023-04-24T09:43:36.140Z,24.39
2023-04-24T09:46:10.622Z,24.39
2023-04-24T09:48:40.196Z,24.41
2023-04-24T09:51:11.881Z,24.39
2023-04-24T09:53:41.343Z,24.37
2023-04-24T09:56:10.383Z,24.39
2023-04-24T09:58:38.791Z,24.38
2023-04-24T10:01:08.680Z,24.40
2023-04-24T10:03:37.542Z,24.33
2023-04-24T10:06:10.115Z,24.27
2023-04-24T10:08:39.169Z,24.28
2023-04-24T10:11:08.394Z,24.25
2023-04-24T10:13:36.829Z,24.30
2023-04-24T10:16:05.386Z,24.34
2023-04-24T10:18:35.487Z,24.40
2023-04-24T10:21:03.915Z,24.39
2023-04-24T10:23:32.503Z,24.38
2023-04-24T10:26:00.828Z,24.39
2023-04-24T10:28:29.367Z,24.33
2023-04-24T10:30:57.757Z,24.30
2023-04-24T10:33:26.118Z,24.33
2023-04-24T10:35:55.818Z,24.37
2023-04-24T10:38:26.302Z,24.41
2023-04-24T10:40:57.259Z,24.43
2023-04-24T10:43:25.864Z,24.42
2023-04-24T10:46:04.166Z,24.40
2023-04-24T10:48:33.420Z,24.33
2023-04-24T10:51:03.220Z,24.22
2023-04-24T10:53:32.311Z,24.25
2023-04-24T10:56:01.942Z,24.28
2023-04-24T10:58:41.150Z,24.27
2023-04-24T11:01:09.533Z,24.25
2023-04-24T11:03:38.899Z,24.22
2023-04-24T11:06:09.839Z,24.22
2023-04-24T11:08:41.351Z,24.22
2023-04-24T11:11:13.803Z,24.25
2023-04-24T11:14:06.634Z,24.30
2023-04-24T11:16:36.818Z,24.27
2023-04-24T11:19:07.429Z,24.26
2023-04-24T11:21:44.279Z,24.26
2023-04-24T11:24:31.877Z,24.24
2023-04-24T11:27:02.751Z,24.25
2023-04-24T11:29:49.498Z,24.24
2023-04-24T11:32:20.507Z,24.24
2023-04-24T11:34:50.264Z,24.27
2023-04-24T11:37:20.123Z,24.23
2023-04-24T11:39:48.520Z,24.21
2023-04-24T11:42:17.455Z,24.21
2023-04-24T11:44:46.040Z,24.15
2023-04-24T11:47:14.488Z,24.17
2023-04-24T11:49:43.019Z,24.20
2023-04-24T11:52:11.754Z,24.16
2023-04-24T11:54:49.942Z,24.12
2023-04-24T11:57:19.029Z,24.16
2023-04-24T11:59:48.929Z,24.16
2023-04-24T12:02:25.348Z,24.15
2023-04-24T12:04:54.880Z,24.19
2023-04-24T12:07:24.466Z,24.20
2023-04-24T12:10:00.953Z,24.17
2023-04-24T12:12:29.811Z,24.17
2023-04-24T12:14:59.709Z,24.20
2023-04-24T12:17:29.636Z,24.21
2023-04-24T12:20:02.232Z,24.20
2023-04-24T12:22:30.916Z,24.21
2023-04-24T12:25:02.759Z,24.18
2023-04-24T12:27:35.181Z,24.20
2023-04-24T12:30:06.871Z,24.22
2023-04-24T12:32:35.281Z,24.22
2023-04-24T12:35:07.208Z,24.20
2023-04-24T12:37:37.548Z,24.22
2023-04-24T12:40:09.907Z,24.23
2023-04-24T12:42:43.894Z,24.25
2023-04-24T12:45:13.258Z,24.26
2023-04-24T12:47:42.075Z,24.23
2023-04-24T12:50:11.476Z,24.21
2023-04-24T12:52:40.138Z,24.18
2023-04-24T12:55:10.879Z,24.20
2023-04-24T12:57:40.869Z,24.17
2023-04-24T13:00:10.643Z,24.16
2023-04-24T13:02:39.315Z,24.13
2023-04-24T13:05:08.913Z,24.16
2023-04-24T13:07:37.337Z,24.17
2023-04-24T13:10:06.831Z,24.17
2023-04-24T13:12:37.537Z,24.16
2023-04-24T13:15:07.466Z,24.19
2023-04-24T13:17:36.027Z,24.17
2023-04-24T13:20:04.905Z,24.17
2023-04-24T13:22:34.427Z,24.17
2023-04-24T13:25:03.100Z,24.15
2023-04-24T13:27:31.600Z,24.12
2023-04-24T13:30:01.334Z,24.17
2023-04-24T13:32:29.978Z,24.15
2023-04-24T13:34:59.122Z,24.12
2023-04-24T13:37:27.467Z,24.17
2023-04-24T13:39:56.088Z,24.17
2023-04-24T13:42:24.470Z,24.18
2023-04-24T13:44:55.117Z,24.21
2023-04-24T13:47:24.887Z,24.16
2023-04-24T13:49:54.911Z,24.15
2023-04-24T13:52:23.283Z,24.17
2023-04-24T13:54:51.689Z,24.14
2023-04-24T13:57:20.084Z,24.17
2023-04-24T13:59:48.417Z,24.27
2023-04-24T14:02:16.861Z,24.19
2023-04-24T14:04:46.891Z,24.18
2023-04-24T14:07:16.000Z,24.21
2023-04-24T14:09:44.393Z,24.11
2023-04-24T14:12:13.848Z,24.17
2023-04-24T14:14:42.405Z,24.16
2023-04-24T14:17:10.744Z,24.18
2023-04-24T14:19:39.157Z,24.18
2023-04-24T14:22:08.864Z,24.19
2023-04-24T14:24:37.233Z,24.18
2023-04-24T14:27:05.748Z,24.14
2023-04-24T14:29:35.375Z,24.13
2023-04-24T14:32:03.862Z,24.24
2023-04-24T14:34:32.196Z,24.21
2023-04-24T14:37:00.940Z,24.20
2023-04-24T14:39:31.095Z,24.17
2023-04-24T14:41:59.467Z,24.20
2023-04-24T14:44:27.811Z,24.18
2023-04-24T14:46:56.328Z,24.20
2023-04-24T14:49:26.075Z,24.19
2023-04-24T14:51:54.471Z,24.19
2023-04-24T14:54:24.291Z,24.21
2023-04-24T14:56:54.105Z,24.21
2023-04-24T14:59:22.599Z,24.23
2023-04-24T15:02:01.855Z,24.15
2023-04-24T15:04:38.371Z,24.16
2023-04-24T15:07:06.852Z,24.17
2023-04-24T15:09:35.365Z,24.17
2023-04-24T15:12:05.264Z,24.13
2023-04-24T15:14:33.627Z,24.20
2023-04-24T15:17:02.162Z,24.25
2023-04-24T15:19:30.567Z,24.27
2023-04-24T15:21:58.953Z,24.29
2023-04-24T15:24:27.361Z,24.29
2023-04-24T15:26:59.416Z,24.27
2023-04-24T15:29:30.353Z,24.27
2023-04-24T15:31:59.421Z,24.29
2023-04-24T15:34:27.984Z,24.29
2023-04-24T15:36:56.640Z,24.32
2023-04-24T15:39:25.414Z,24.31
2023-04-24T15:41:54.200Z,24.29
2023-04-24T15:44:23.227Z,24.32
2023-04-24T15:46:53.341Z,24.29
2023-04-24T15:49:21.686Z,24.31
2023-04-24T15:51:50.204Z,24.29
2023-04-24T15:54:18.688Z,24.31
2023-04-24T15:56:47.424Z,24.33
2023-04-24T15:59:15.905Z,24.30
2023-04-24T16:01:44.354Z,24.28
2023-04-24T16:04:14.406Z,24.30
2023-04-24T16:06:43.112Z,24.32
2023-04-24T16:09:13.441Z,24.30
2023-04-24T16:11:42.058Z,24.24
2023-04-24T16:14:10.821Z,24.28
2023-04-24T16:16:39.941Z,24.29
2023-04-24T16:19:08.554Z,24.32
2023-04-24T16:21:38.408Z,24.33
2023-04-24T16:24:07.275Z,24.35
2023-04-24T16:26:35.701Z,24.36
2023-04-24T16:29:04.068Z,24.37
2023-04-24T16:31:33.176Z,24.37
2023-04-24T16:34:01.604Z,24.36
2023-04-24T16:36:30.024Z,24.37
2023-04-24T16:39:01.152Z,24.39
2023-04-24T16:41:29.628Z,24.38
2023-04-24T16:43:58.026Z,24.38
2023-04-24T16:46:26.363Z,24.36
2023-04-24T16:48:54.693Z,24.32
2023-04-24T16:51:23.057Z,24.34
2023-04-24T16:53:51.366Z,24.32
2023-04-24T16:56:21.108Z,24.32
2023-04-24T16:58:49.611Z,24.36
2023-04-24T17:01:18.114Z,24.38
2023-04-24T17:03:47.593Z,24.36
2023-04-24T17:06:16.146Z,24.33
2023-04-24T17:08:44.521Z,24.34
2023-04-24T17:11:13.028Z,24.38
2023-04-24T17:13:42.844Z,24.33
2023-04-24T17:16:11.268Z,24.31
2023-04-24T17:18:39.946Z,24.33
2023-04-24T17:21:08.348Z,24.37
2023-04-24T17:23:36.896Z,24.37
2023-04-24T17:26:05.723Z,24.34
2023-04-24T17:28:34.284Z,24.30
2023-04-24T17:31:04.167Z,24.25
2023-04-24T17:33:32.728Z,24.27
2023-04-24T17:36:02.400Z,24.30
2023-04-24T17:38:31.420Z,24.32
2023-04-24T17:41:00.458Z,24.33
2023-04-24T17:43:28.950Z,24.35
2023-04-24T17:45:58.134Z,24.35
2023-04-24T17:48:27.967Z,24.36
2023-04-24T17:50:56.379Z,24.37
2023-04-24T17:53:24.706Z,24.35
2023-04-24T17:55:54.317Z,24.32
2023-04-24T17:58:23.116Z,24.30
2023-04-24T18:00:51.591Z,24.29
2023-04-24T18:03:20.098Z,24.30
2023-04-24T18:05:50.051Z,24.34
2023-04-24T18:08:18.401Z,24.36
2023-04-24T18:10:46.955Z,24.36
2023-04-24T18:13:15.320Z,24.36
2023-04-24T18:15:43.991Z,24.37
2023-04-24T18:18:12.659Z,24.38
2023-04-24T18:20:41.089Z,24.39
2023-04-24T18:23:10.903Z,24.39
2023-04-24T18:25:39.317Z,24.37
2023-04-24T18:28:07.784Z,24.36
2023-04-24T18:30:36.123Z,24.37
2023-04-24T18:33:04.703Z,24.35
2023-04-24T18:35:33.186Z,24.37
2023-04-24T18:38:01.748Z,24.38
2023-04-24T18:40:31.606Z,24.40
2023-04-24T18:43:00.049Z,24.38
2023-04-24T18:45:28.543Z,24.39
2023-04-24T18:47:57.082Z,24.38
2023-04-24T18:50:27.746Z,24.36
2023-04-24T18:52:56.215Z,24.36
2023-04-24T18:55:24.617Z,24.34
2023-04-24T18:57:54.348Z,24.36
2023-04-24T19:00:23.006Z,24.33
2023-04-24T19:02:51.541Z,24.34
2023-04-24T19:05:20.204Z,24.37
2023-04-24T19:07:48.671Z,24.36
2023-04-24T19:10:17.159Z,24.32
2023-04-24T19:12:45.580Z,24.22
2023-04-24T19:15:15.426Z,24.24
2023-04-24T19:17:43.833Z,24.19
2023-04-24T19:20:13.313Z,24.17
2023-04-24T19:22:41.941Z,24.19
2023-04-24T19:25:10.803Z,24.20
2023-04-24T19:27:39.301Z,24.17
2023-04-24T19:30:09.460Z,24.20
2023-04-24T19:32:39.266Z,24.21
2023-04-24T19:35:08.379Z,24.19
2023-04-24T19:37:36.759Z,24.15
2023-04-24T19:40:06.347Z,24.15
2023-04-24T19:42:43.377Z,24.13
2023-04-24T19:45:13.500Z,24.17
2023-04-24T19:47:43.410Z,24.16
2023-04-24T19:50:12.168Z,24.18
2023-04-24T19:52:40.671Z,24.15
2023-04-24T19:55:09.997Z,24.10
2023-04-24T19:57:38.387Z,24.14
2023-04-24T20:00:08.572Z,24.12
2023-04-24T20:02:37.189Z,24.12
2023-04-24T20:05:08.864Z,24.12
2023-04-24T20:07:37.505Z,24.13
2023-04-24T20:10:07.298Z,24.13
2023-04-24T20:12:36.535Z,24.14
2023-04-24T20:15:05.785Z,24.13
2023-04-24T20:17:34.125Z,24.12
2023-04-24T20:20:02.707Z,24.15
2023-04-24T20:22:35.421Z,24.12
2023-04-24T20:25:04.076Z,24.12
2023-04-24T20:27:32.468Z,24.11
2023-04-24T20:30:00.819Z,24.10
2023-04-24T20:32:29.250Z,24.13
2023-04-24T20:34:57.685Z,24.17
2023-04-24T20:37:26.045Z,24.14
2023-04-24T20:39:56.074Z,24.12
2023-04-24T20:42:24.527Z,24.13
2023-04-24T20:44:52.900Z,24.12
2023-04-24T20:47:22.107Z,24.11
2023-04-24T20:49:50.491Z,24.10
2023-04-24T20:52:18.899Z,24.09
2023-04-24T20:54:48.338Z,24.04
2023-04-24T20:57:18.112Z,24.07
2023-04-24T20:59:46.443Z,24.07
2023-04-24T21:02:14.812Z,24.01
2023-04-24T21:04:43.258Z,24.15
2023-04-24T21:07:13.049Z,24.19
2023-04-24T21:09:41.516Z,24.15
2023-04-24T21:12:09.893Z,24.21
2023-04-24T21:14:39.647Z,24.16
2023-04-24T21:17:08.014Z,24.13
2023-04-24T21:19:36.454Z,24.18
2023-04-24T21:22:04.855Z,24.21
2023-04-24T21:24:33.254Z,24.23
2023-04-24T21:27:01.645Z,24.24
2023-04-24T21:29:30.003Z,24.25
2023-04-24T21:31:59.848Z,24.25
2023-04-24T21:34:28.326Z,24.26
2023-04-24T21:36:56.698Z,24.27
2023-04-24T21:39:25.082Z,24.27
2023-04-24T21:41:53.530Z,24.27
2023-04-24T21:44:21.875Z,24.28
2023-04-24T21:46:50.308Z,24.27
2023-04-24T21:49:20.290Z,24.27
2023-04-24T21:51:48.693Z,24.28
2023-04-24T21:54:17.100Z,24.27
2023-04-24T21:56:45.694Z,24.27
2023-04-24T21:59:14.048Z,24.29
2023-04-24T22:01:42.458Z,24.26
2023-04-24T22:04:11.053Z,24.27
2023-04-24T22:06:40.949Z,24.27
2023-04-24T22:09:09.359Z,24.28
2023-04-24T22:11:37.938Z,24.27
2023-04-24T22:14:07.187Z,24.28
2023-04-24T22:16:35.666Z,24.28
2023-04-24T22:19:05.013Z,24.28
2023-04-24T22:21:33.855Z,24.28
2023-04-24T22:24:03.683Z,24.29
2023-04-24T22:26:32.039Z,24.27
2023-04-24T22:29:00.394Z,24.28
2023-04-24T22:31:28.764Z,24.28
2023-04-24T22:33:57.178Z,24.28
2023-04-24T22:36:26.714Z,24.27
2023-04-24T22:38:55.125Z,24.28
2023-04-24T22:41:24.991Z,24.28
2023-04-24T22:43:53.351Z,24.29
2023-04-24T22:46:21.843Z,24.28
2023-04-24T22:48:50.230Z,24.29
2023-04-24T22:51:18.913Z,24.28
2023-04-24T22:53:49.741Z,24.28
2023-04-24T22:56:18.379Z,24.28
2023-04-24T22:58:48.059Z,24.27
2023-04-24T23:01:17.526Z,24.27
2023-04-24T23:03:46.319Z,24.27
2023-04-24T23:06:14.851Z,24.27
2023-04-24T23:08:43.208Z,24.28
2023-04-24T23:11:11.591Z,24.27
2023-04-24T23:13:40.087Z,24.26
2023-04-24T23:16:09.994Z,24.28
2023-04-24T23:18:38.394Z,24.27
2023-04-24T23:21:07.678Z,24.28
2023-04-24T23:23:36.013Z,24.27
2023-04-24T23:26:04.356Z,24.27
2023-04-24T23:28:33.006Z,24.27
2023-04-24T23:31:01.532Z,24.27
2023-04-24T23:33:31.220Z,24.26
2023-04-24T23:35:59.568Z,24.27
2023-04-24T23:38:34.053Z,24.26
2023-04-24T23:41:08.253Z,24.27
2023-04-24T23:43:36.716Z,24.27
2023-04-24T23:46:05.094Z,24.26
2023-04-24T23:48:34.787Z,24.25
2023-04-24T23:51:03.156Z,24.26
2023-04-24T23:53:31.485Z,24.27
2023-04-24T23:55:59.778Z,24.27
2023-04-24T23:58:28.202Z,24.27
